sensor_id;sensor_type;location;lat;lon;timestamp;P1;durP1;ratioP1;P2;durP2;ratioP2
17727;SDS011;8984;49.268;12.302;2023-06-05T00:01:40;3.27;;;2.10;;
17727;SDS011;8984;49.268;12.302;2023-06-05T00:04:06;4.30;;;2.33;;
17727;SDS011;8984;49.268;12.302;2023-06-05T00:06:34;6.03;;;2.00;;
17727;SDS011;8984;49.268;12.302;2023-06-05T00:09:02;2.70;;;2.27;;
17727;SDS011;8984;49.268;12.302;2023-06-05T00:11:29;2.60;;;1.87;;
17727;SDS011;8984;49.268;12.302;2023-06-05T00:13:56;2.80;;;1.63;;
17727;SDS011;8984;49.268;12.302;2023-06-05T00:16:24;4.90;;;1.80;;
17727;SDS011;8984;49.268;12.302;2023-06-05T00:18:50;4.80;;;2.07;;
17727;SDS011;8984;49.268;12.302;2023-06-05T00:21:17;1.63;;;1.50;;
17727;SDS011;8984;49.268;12.302;2023-06-05T00:23:44;4.13;;;1.97;;
17727;SDS011;8984;49.268;12.302;2023-06-05T00:26:11;4.40;;;1.90;;
17727;SDS011;8984;49.268;12.302;2023-06-05T00:28:38;3.00;;;1.93;;
17727;SDS011;8984;49.268;12.302;2023-06-05T00:31:05;3.07;;;2.00;;
17727;SDS011;8984;49.268;12.302;2023-06-05T00:33:33;3.67;;;1.90;;
17727;SDS011;8984;49.268;12.302;2023-06-05T00:36:00;1.90;;;1.70;;
17727;SDS011;8984;49.268;12.302;2023-06-05T00:38:27;3.80;;;1.97;;
17727;SDS011;8984;49.268;12.302;2023-06-05T00:40:53;3.40;;;2.10;;
17727;SDS011;8984;49.268;12.302;2023-06-05T00:43:20;4.67;;;2.47;;
17727;SDS011;8984;49.268;12.302;2023-06-05T00:45:47;3.47;;;2.10;;
17727;SDS011;8984;49.268;12.302;2023-06-05T00:48:14;2.57;;;1.80;;
17727;SDS011;8984;49.268;12.302;2023-06-05T00:50:42;2.87;;;2.30;;
17727;SDS011;8984;49.268;12.302;2023-06-05T00:53:10;4.73;;;1.90;;
17727;SDS011;8984;49.268;12.302;2023-06-05T00:55:39;2.67;;;2.00;;
17727;SDS011;8984;49.268;12.302;2023-06-05T00:58:06;2.90;;;2.17;;
17727;SDS011;8984;49.268;12.302;2023-06-05T01:00:34;7.77;;;2.30;;
17727;SDS011;8984;49.268;12.302;2023-06-05T01:03:01;2.77;;;1.97;;
17727;SDS011;8984;49.268;12.302;2023-06-05T01:05:28;3.07;;;1.80;;
17727;SDS011;8984;49.268;12.302;2023-06-05T01:07:56;3.53;;;2.40;;
17727;SDS011;8984;49.268;12.302;2023-06-05T01:10:23;3.50;;;2.10;;
17727;SDS011;8984;49.268;12.302;2023-06-05T01:12:50;2.67;;;1.90;;
17727;SDS011;8984;49.268;12.302;2023-06-05T01:15:24;2.23;;;1.90;;
17727;SDS011;8984;49.268;12.302;2023-06-05T01:17:54;3.17;;;2.13;;
17727;SDS011;8984;49.268;12.302;2023-06-05T01:20:24;2.73;;;2.00;;
17727;SDS011;8984;49.268;12.302;2023-06-05T01:22:59;2.80;;;1.90;;
17727;SDS011;8984;49.268;12.302;2023-06-05T01:25:26;3.00;;;2.17;;
17727;SDS011;8984;49.268;12.302;2023-06-05T01:27:54;2.60;;;1.90;;
17727;SDS011;8984;49.268;12.302;2023-06-05T01:30:27;2.70;;;2.10;;
17727;SDS011;8984;49.268;12.302;2023-06-05T01:33:00;2.80;;;2.17;;
17727;SDS011;8984;49.268;12.302;2023-06-05T01:35:30;3.33;;;2.00;;
17727;SDS011;8984;49.268;12.302;2023-06-05T01:38:00;2.30;;;1.90;;
17727;SDS011;8984;49.268;12.302;2023-06-05T01:40:31;3.70;;;1.90;;
17727;SDS011;8984;49.268;12.302;2023-06-05T01:42:59;2.40;;;1.97;;
17727;SDS011;8984;49.268;12.302;2023-06-05T01:45:28;4.27;;;2.27;;
17727;SDS011;8984;49.268;12.302;2023-06-05T01:47:56;2.07;;;1.83;;
17727;SDS011;8984;49.268;12.302;2023-06-05T01:50:24;2.73;;;1.87;;
17727;SDS011;8984;49.268;12.302;2023-06-05T01:52:51;2.87;;;1.80;;
17727;SDS011;8984;49.268;12.302;2023-06-05T01:55:21;2.97;;;2.03;;
17727;SDS011;8984;49.268;12.302;2023-06-05T01:57:49;2.27;;;2.00;;
17727;SDS011;8984;49.268;12.302;2023-06-05T02:00:16;3.77;;;1.97;;
17727;SDS011;8984;49.268;12.302;2023-06-05T02:02:43;2.40;;;1.80;;
17727;SDS011;8984;49.268;12.302;2023-06-05T02:05:11;4.27;;;1.90;;
17727;SDS011;8984;49.268;12.302;2023-06-05T02:07:39;2.70;;;2.00;;
17727;SDS011;8984;49.268;12.302;2023-06-05T02:10:08;2.17;;;1.90;;
17727;SDS011;8984;49.268;12.302;2023-06-05T02:12:37;3.23;;;2.00;;
17727;SDS011;8984;49.268;12.302;2023-06-05T02:15:06;4.13;;;2.10;;
17727;SDS011;8984;49.268;12.302;2023-06-05T02:17:38;4.97;;;1.73;;
17727;SDS011;8984;49.268;12.302;2023-06-05T02:20:10;4.73;;;2.03;;
17727;SDS011;8984;49.268;12.302;2023-06-05T02:22:37;5.30;;;2.33;;
17727;SDS011;8984;49.268;12.302;2023-06-05T02:25:05;2.23;;;1.80;;
17727;SDS011;8984;49.268;12.302;2023-06-05T02:27:32;3.60;;;1.90;;
17727;SDS011;8984;49.268;12.302;2023-06-05T02:30:00;4.13;;;1.93;;
17727;SDS011;8984;49.268;12.302;2023-06-05T02:32:28;3.93;;;2.00;;
17727;SDS011;8984;49.268;12.302;2023-06-05T02:34:56;3.17;;;2.10;;
17727;SDS011;8984;49.268;12.302;2023-06-05T02:37:23;4.70;;;2.20;;
17727;SDS011;8984;49.268;12.302;2023-06-05T02:39:50;4.00;;;2.50;;
17727;SDS011;8984;49.268;12.302;2023-06-05T02:42:16;4.17;;;2.30;;
17727;SDS011;8984;49.268;12.302;2023-06-05T02:44:44;3.53;;;2.20;;
17727;SDS011;8984;49.268;12.302;2023-06-05T02:47:13;3.00;;;2.10;;
17727;SDS011;8984;49.268;12.302;2023-06-05T02:49:39;2.60;;;2.20;;
17727;SDS011;8984;49.268;12.302;2023-06-05T02:52:06;2.67;;;2.27;;
17727;SDS011;8984;49.268;12.302;2023-06-05T02:54:33;2.43;;;2.10;;
17727;SDS011;8984;49.268;12.302;2023-06-05T02:57:00;2.63;;;2.10;;
17727;SDS011;8984;49.268;12.302;2023-06-05T02:59:26;3.00;;;2.00;;
17727;SDS011;8984;49.268;12.302;2023-06-05T03:01:56;3.27;;;2.63;;
17727;SDS011;8984;49.268;12.302;2023-06-05T03:04:25;4.90;;;1.80;;
17727;SDS011;8984;49.268;12.302;2023-06-05T03:06:51;3.67;;;2.30;;
17727;SDS011;8984;49.268;12.302;2023-06-05T03:09:21;2.30;;;2.10;;
17727;SDS011;8984;49.268;12.302;2023-06-05T03:11:48;7.87;;;2.20;;
17727;SDS011;8984;49.268;12.302;2023-06-05T03:14:15;3.03;;;2.10;;
17727;SDS011;8984;49.268;12.302;2023-06-05T03:16:42;2.87;;;2.20;;
17727;SDS011;8984;49.268;12.302;2023-06-05T03:19:10;2.53;;;2.10;;
17727;SDS011;8984;49.268;12.302;2023-06-05T03:21:39;3.40;;;1.93;;
17727;SDS011;8984;49.268;12.302;2023-06-05T03:24:08;5.00;;;2.50;;
17727;SDS011;8984;49.268;12.302;2023-06-05T03:26:37;4.63;;;2.47;;
17727;SDS011;8984;49.268;12.302;2023-06-05T03:29:05;4.07;;;2.43;;
17727;SDS011;8984;49.268;12.302;2023-06-05T03:31:32;2.83;;;2.30;;
17727;SDS011;8984;49.268;12.302;2023-06-05T03:33:59;3.33;;;1.90;;
17727;SDS011;8984;49.268;12.302;2023-06-05T03:36:25;3.53;;;2.50;;
17727;SDS011;8984;49.268;12.302;2023-06-05T03:38:54;4.03;;;2.30;;
17727;SDS011;8984;49.268;12.302;2023-06-05T03:41:21;4.53;;;2.80;;
17727;SDS011;8984;49.268;12.302;2023-06-05T03:43:48;4.33;;;2.53;;
17727;SDS011;8984;49.268;12.302;2023-06-05T03:46:15;4.37;;;2.30;;
17727;SDS011;8984;49.268;12.302;2023-06-05T03:48:44;4.47;;;2.20;;
17727;SDS011;8984;49.268;12.302;2023-06-05T03:51:10;3.70;;;2.50;;
17727;SDS011;8984;49.268;12.302;2023-06-05T03:53:38;4.43;;;2.67;;
17727;SDS011;8984;49.268;12.302;2023-06-05T03:56:09;5.40;;;2.90;;
17727;SDS011;8984;49.268;12.302;2023-06-05T03:58:37;4.60;;;2.37;;
17727;SDS011;8984;49.268;12.302;2023-06-05T04:01:04;3.20;;;2.40;;
17727;SDS011;8984;49.268;12.302;2023-06-05T04:03:32;4.87;;;2.70;;
17727;SDS011;8984;49.268;12.302;2023-06-05T04:06:02;3.50;;;2.70;;
17727;SDS011;8984;49.268;12.302;2023-06-05T04:08:29;4.47;;;2.70;;
17727;SDS011;8984;49.268;12.302;2023-06-05T04:10:56;2.97;;;2.67;;
17727;SDS011;8984;49.268;12.302;2023-06-05T04:13:24;5.40;;;2.93;;
17727;SDS011;8984;49.268;12.302;2023-06-05T04:15:51;7.47;;;2.30;;
17727;SDS011;8984;49.268;12.302;2023-06-05T04:18:18;5.28;;;3.53;;
17727;SDS011;8984;49.268;12.302;2023-06-05T04:20:45;3.67;;;2.70;;
17727;SDS011;8984;49.268;12.302;2023-06-05T04:23:12;2.78;;;2.30;;
17727;SDS011;8984;49.268;12.302;2023-06-05T04:25:39;4.95;;;2.67;;
17727;SDS011;8984;49.268;12.302;2023-06-05T04:28:10;3.40;;;2.38;;
17727;SDS011;8984;49.268;12.302;2023-06-05T04:30:39;2.92;;;2.40;;
17727;SDS011;8984;49.268;12.302;2023-06-05T04:33:05;5.10;;;2.30;;
17727;SDS011;8984;49.268;12.302;2023-06-05T04:35:32;4.60;;;2.53;;
17727;SDS011;8984;49.268;12.302;2023-06-05T04:37:59;3.65;;;2.33;;
17727;SDS011;8984;49.268;12.302;2023-06-05T04:40:26;4.78;;;2.35;;
17727;SDS011;8984;49.268;12.302;2023-06-05T04:42:53;3.38;;;2.10;;
17727;SDS011;8984;49.268;12.302;2023-06-05T04:45:23;3.45;;;2.08;;
17727;SDS011;8984;49.268;12.302;2023-06-05T04:47:52;2.65;;;2.03;;
17727;SDS011;8984;49.268;12.302;2023-06-05T04:50:22;4.60;;;2.25;;
17727;SDS011;8984;49.268;12.302;2023-06-05T04:52:51;3.67;;;2.35;;
17727;SDS011;8984;49.268;12.302;2023-06-05T04:55:19;2.70;;;2.10;;
17727;SDS011;8984;49.268;12.302;2023-06-05T04:57:46;5.13;;;2.13;;
17727;SDS011;8984;49.268;12.302;2023-06-05T05:00:14;3.63;;;2.30;;
17727;SDS011;8984;49.268;12.302;2023-06-05T05:02:41;3.03;;;1.90;;
17727;SDS011;8984;49.268;12.302;2023-06-05T05:05:09;5.47;;;2.35;;
17727;SDS011;8984;49.268;12.302;2023-06-05T05:07:40;4.70;;;2.60;;
17727;SDS011;8984;49.268;12.302;2023-06-05T05:10:07;3.25;;;2.50;;
17727;SDS011;8984;49.268;12.302;2023-06-05T05:12:34;3.53;;;2.53;;
17727;SDS011;8984;49.268;12.302;2023-06-05T05:15:01;3.50;;;2.53;;
17727;SDS011;8984;49.268;12.302;2023-06-05T05:17:29;3.30;;;2.53;;
17727;SDS011;8984;49.268;12.302;2023-06-05T05:19:57;7.88;;;2.83;;
17727;SDS011;8984;49.268;12.302;2023-06-05T05:22:26;3.95;;;2.50;;
17727;SDS011;8984;49.268;12.302;2023-06-05T05:24:53;7.65;;;3.00;;
17727;SDS011;8984;49.268;12.302;2023-06-05T05:27:19;3.63;;;2.45;;
17727;SDS011;8984;49.268;12.302;2023-06-05T05:29:46;4.22;;;2.55;;
17727;SDS011;8984;49.268;12.302;2023-06-05T05:32:13;5.72;;;2.60;;
17727;SDS011;8984;49.268;12.302;2023-06-05T05:34:39;4.15;;;2.75;;
17727;SDS011;8984;49.268;12.302;2023-06-05T05:37:06;3.90;;;2.80;;
17727;SDS011;8984;49.268;12.302;2023-06-05T05:39:34;7.22;;;2.95;;
17727;SDS011;8984;49.268;12.302;2023-06-05T05:42:01;6.10;;;2.70;;
17727;SDS011;8984;49.268;12.302;2023-06-05T05:44:28;3.83;;;2.60;;
17727;SDS011;8984;49.268;12.302;2023-06-05T05:46:54;5.72;;;3.30;;
17727;SDS011;8984;49.268;12.302;2023-06-05T05:49:21;4.85;;;2.80;;
17727;SDS011;8984;49.268;12.302;2023-06-05T05:51:48;6.10;;;2.85;;
17727;SDS011;8984;49.268;12.302;2023-06-05T05:54:16;7.70;;;3.47;;
17727;SDS011;8984;49.268;12.302;2023-06-05T05:56:44;6.35;;;3.20;;
17727;SDS011;8984;49.268;12.302;2023-06-05T05:59:12;5.22;;;2.80;;
17727;SDS011;8984;49.268;12.302;2023-06-05T06:01:39;6.30;;;3.10;;
17727;SDS011;8984;49.268;12.302;2023-06-05T06:04:06;3.78;;;3.00;;
17727;SDS011;8984;49.268;12.302;2023-06-05T06:06:32;8.00;;;3.10;;
17727;SDS011;8984;49.268;12.302;2023-06-05T06:08:59;6.47;;;3.08;;
17727;SDS011;8984;49.268;12.302;2023-06-05T06:11:27;6.25;;;2.90;;
17727;SDS011;8984;49.268;12.302;2023-06-05T06:13:55;6.03;;;2.75;;
17727;SDS011;8984;49.268;12.302;2023-06-05T06:16:22;4.03;;;2.85;;
17727;SDS011;8984;49.268;12.302;2023-06-05T06:18:48;5.68;;;2.97;;
17727;SDS011;8984;49.268;12.302;2023-06-05T06:21:15;5.05;;;2.72;;
17727;SDS011;8984;49.268;12.302;2023-06-05T06:23:42;5.88;;;3.28;;
17727;SDS011;8984;49.268;12.302;2023-06-05T06:26:10;10.38;;;3.28;;
17727;SDS011;8984;49.268;12.302;2023-06-05T06:28:39;4.70;;;3.40;;
17727;SDS011;8984;49.268;12.302;2023-06-05T06:31:07;3.85;;;2.92;;
17727;SDS011;8984;49.268;12.302;2023-06-05T06:33:34;7.72;;;3.25;;
17727;SDS011;8984;49.268;12.302;2023-06-05T06:36:01;4.80;;;3.15;;
17727;SDS011;8984;49.268;12.302;2023-06-05T06:38:28;5.93;;;3.05;;
17727;SDS011;8984;49.268;12.302;2023-06-05T06:40:57;4.28;;;2.80;;
17727;SDS011;8984;49.268;12.302;2023-06-05T06:43:24;6.80;;;2.92;;
17727;SDS011;8984;49.268;12.302;2023-06-05T06:45:51;5.57;;;3.17;;
17727;SDS011;8984;49.268;12.302;2023-06-05T06:48:20;6.93;;;3.70;;
17727;SDS011;8984;49.268;12.302;2023-06-05T06:50:47;6.38;;;3.53;;
17727;SDS011;8984;49.268;12.302;2023-06-05T06:53:13;8.18;;;3.67;;
17727;SDS011;8984;49.268;12.302;2023-06-05T06:55:40;3.55;;;3.08;;
17727;SDS011;8984;49.268;12.302;2023-06-05T06:58:07;5.28;;;3.47;;
17727;SDS011;8984;49.268;12.302;2023-06-05T07:00:34;6.70;;;3.33;;
17727;SDS011;8984;49.268;12.302;2023-06-05T07:03:01;5.60;;;3.70;;
17727;SDS011;8984;49.268;12.302;2023-06-05T07:05:29;5.40;;;3.42;;
17727;SDS011;8984;49.268;12.302;2023-06-05T07:07:56;4.55;;;3.00;;
17727;SDS011;8984;49.268;12.302;2023-06-05T07:10:25;9.25;;;3.33;;
17727;SDS011;8984;49.268;12.302;2023-06-05T07:12:52;5.32;;;3.42;;
17727;SDS011;8984;49.268;12.302;2023-06-05T07:15:19;7.68;;;3.40;;
17727;SDS011;8984;49.268;12.302;2023-06-05T07:17:46;3.97;;;3.15;;
17727;SDS011;8984;49.268;12.302;2023-06-05T07:20:13;5.00;;;3.30;;
17727;SDS011;8984;49.268;12.302;2023-06-05T07:22:42;4.63;;;2.97;;
17727;SDS011;8984;49.268;12.302;2023-06-05T07:25:11;7.78;;;3.03;;
17727;SDS011;8984;49.268;12.302;2023-06-05T07:27:39;7.60;;;3.13;;
17727;SDS011;8984;49.268;12.302;2023-06-05T07:30:06;5.22;;;3.13;;
17727;SDS011;8984;49.268;12.302;2023-06-05T07:32:34;6.05;;;2.95;;
17727;SDS011;8984;49.268;12.302;2023-06-05T07:35:01;4.30;;;2.80;;
17727;SDS011;8984;49.268;12.302;2023-06-05T07:37:28;5.13;;;3.10;;
17727;SDS011;8984;49.268;12.302;2023-06-05T07:39:56;4.93;;;2.92;;
17727;SDS011;8984;49.268;12.302;2023-06-05T07:42:23;5.55;;;3.10;;
17727;SDS011;8984;49.268;12.302;2023-06-05T07:44:49;7.53;;;2.80;;
17727;SDS011;8984;49.268;12.302;2023-06-05T07:47:16;4.53;;;2.80;;
17727;SDS011;8984;49.268;12.302;2023-06-05T07:49:43;3.78;;;2.60;;
17727;SDS011;8984;49.268;12.302;2023-06-05T07:52:10;3.70;;;2.92;;
17727;SDS011;8984;49.268;12.302;2023-06-05T07:54:37;6.95;;;3.13;;
17727;SDS011;8984;49.268;12.302;2023-06-05T07:57:05;5.45;;;3.00;;
17727;SDS011;8984;49.268;12.302;2023-06-05T07:59:33;6.38;;;3.10;;
17727;SDS011;8984;49.268;12.302;2023-06-05T08:02:00;5.53;;;2.90;;
17727;SDS011;8984;49.268;12.302;2023-06-05T08:04:26;6.15;;;2.72;;
17727;SDS011;8984;49.268;12.302;2023-06-05T08:06:53;5.22;;;2.88;;
17727;SDS011;8984;49.268;12.302;2023-06-05T08:09:20;4.22;;;2.63;;
17727;SDS011;8984;49.268;12.302;2023-06-05T08:11:48;5.80;;;2.85;;
17727;SDS011;8984;49.268;12.302;2023-06-05T08:14:18;4.30;;;2.67;;
17727;SDS011;8984;49.268;12.302;2023-06-05T08:16:45;3.97;;;3.10;;
17727;SDS011;8984;49.268;12.302;2023-06-05T08:19:12;4.10;;;2.70;;
17727;SDS011;8984;49.268;12.302;2023-06-05T08:21:38;4.90;;;2.70;;
17727;SDS011;8984;49.268;12.302;2023-06-05T08:24:05;3.60;;;2.97;;
17727;SDS011;8984;49.268;12.302;2023-06-05T08:26:32;4.22;;;2.60;;
17727;SDS011;8984;49.268;12.302;2023-06-05T08:28:59;7.57;;;2.83;;
17727;SDS011;8984;49.268;12.302;2023-06-05T08:31:27;6.00;;;2.50;;
17727;SDS011;8984;49.268;12.302;2023-06-05T08:33:54;4.00;;;2.83;;
17727;SDS011;8984;49.268;12.302;2023-06-05T08:36:21;4.35;;;2.80;;
17727;SDS011;8984;49.268;12.302;2023-06-05T08:38:49;3.83;;;2.72;;
17727;SDS011;8984;49.268;12.302;2023-06-05T08:41:15;7.35;;;2.65;;
17727;SDS011;8984;49.268;12.302;2023-06-05T08:43:42;3.65;;;2.85;;
17727;SDS011;8984;49.268;12.302;2023-06-05T08:46:10;3.92;;;2.80;;
17727;SDS011;8984;49.268;12.302;2023-06-05T08:48:42;7.43;;;2.72;;
17727;SDS011;8984;49.268;12.302;2023-06-05T08:51:10;6.05;;;2.70;;
17727;SDS011;8984;49.268;12.302;2023-06-05T08:53:39;2.80;;;2.45;;
17727;SDS011;8984;49.268;12.302;2023-06-05T08:56:09;6.53;;;2.80;;
17727;SDS011;8984;49.268;12.302;2023-06-05T08:58:37;5.68;;;2.80;;
17727;SDS011;8984;49.268;12.302;2023-06-05T09:01:04;3.97;;;2.70;;
17727;SDS011;8984;49.268;12.302;2023-06-05T09:03:32;5.15;;;2.95;;
17727;SDS011;8984;49.268;12.302;2023-06-05T09:06:01;3.72;;;2.72;;
17727;SDS011;8984;49.268;12.302;2023-06-05T09:08:29;3.05;;;2.55;;
17727;SDS011;8984;49.268;12.302;2023-06-05T09:13:52;4.78;;;2.60;;
17727;SDS011;8984;49.268;12.302;2023-06-05T09:16:20;2.80;;;2.20;;
17727;SDS011;8984;49.268;12.302;2023-06-05T09:18:52;2.75;;;2.30;;
17727;SDS011;8984;49.268;12.302;2023-06-05T09:21:21;5.55;;;2.45;;
17727;SDS011;8984;49.268;12.302;2023-06-05T09:23:55;4.45;;;2.30;;
17727;SDS011;8984;49.268;12.302;2023-06-05T09:26:54;4.50;;;2.70;;
17727;SDS011;8984;49.268;12.302;2023-06-05T09:29:33;3.33;;;2.30;;
17727;SDS011;8984;49.268;12.302;2023-06-05T09:32:18;3.42;;;2.70;;
17727;SDS011;8984;49.268;12.302;2023-06-05T09:34:59;4.60;;;2.85;;
17727;SDS011;8984;49.268;12.302;2023-06-05T09:40:21;2.88;;;2.58;;
17727;SDS011;8984;49.268;12.302;2023-06-05T09:43:13;3.63;;;2.70;;
17727;SDS011;8984;49.268;12.302;2023-06-05T09:45:56;3.38;;;2.60;;
17727;SDS011;8984;49.268;12.302;2023-06-05T09:48:36;5.13;;;2.65;;
17727;SDS011;8984;49.268;12.302;2023-06-05T09:51:11;3.03;;;2.50;;
17727;SDS011;8984;49.268;12.302;2023-06-05T09:53:48;3.63;;;2.53;;
17727;SDS011;8984;49.268;12.302;2023-06-05T09:56:17;3.55;;;3.03;;
17727;SDS011;8984;49.268;12.302;2023-06-05T09:58:49;3.85;;;2.80;;
17727;SDS011;8984;49.268;12.302;2023-06-05T10:01:26;4.75;;;3.10;;
17727;SDS011;8984;49.268;12.302;2023-06-05T10:04:20;6.55;;;2.90;;
17727;SDS011;8984;49.268;12.302;2023-06-05T10:06:49;4.22;;;2.80;;
17727;SDS011;8984;49.268;12.302;2023-06-05T10:09:23;4.15;;;3.00;;
17727;SDS011;8984;49.268;12.302;2023-06-05T10:12:19;4.25;;;3.03;;
17727;SDS011;8984;49.268;12.302;2023-06-05T10:14:53;5.03;;;3.30;;
17727;SDS011;8984;49.268;12.302;2023-06-05T10:17:27;4.93;;;3.00;;
17727;SDS011;8984;49.268;12.302;2023-06-05T10:20:16;3.30;;;2.80;;
17727;SDS011;8984;49.268;12.302;2023-06-05T10:25:42;4.40;;;2.90;;
17727;SDS011;8984;49.268;12.302;2023-06-05T10:28:21;2.78;;;2.53;;
17727;SDS011;8984;49.268;12.302;2023-06-05T10:31:14;3.40;;;3.08;;
17727;SDS011;8984;49.268;12.302;2023-06-05T10:33:56;5.45;;;2.75;;
17727;SDS011;8984;49.268;12.302;2023-06-05T10:39:50;6.95;;;2.90;;
17727;SDS011;8984;49.268;12.302;2023-06-05T10:42:27;4.05;;;2.95;;
17727;SDS011;8984;49.268;12.302;2023-06-05T10:44:56;5.68;;;3.30;;
17727;SDS011;8984;49.268;12.302;2023-06-05T10:50:26;4.95;;;3.10;;
17727;SDS011;8984;49.268;12.302;2023-06-05T10:52:57;6.03;;;2.80;;
17727;SDS011;8984;49.268;12.302;2023-06-05T10:55:40;3.22;;;2.75;;
17727;SDS011;8984;49.268;12.302;2023-06-05T10:58:34;4.05;;;2.90;;
17727;SDS011;8984;49.268;12.302;2023-06-05T11:01:23;5.50;;;2.80;;
17727;SDS011;8984;49.268;12.302;2023-06-05T11:04:07;3.13;;;2.78;;
17727;SDS011;8984;49.268;12.302;2023-06-05T11:10:03;4.90;;;2.90;;
17727;SDS011;8984;49.268;12.302;2023-06-05T11:15:41;6.25;;;3.05;;
17727;SDS011;8984;49.268;12.302;2023-06-05T11:18:29;5.43;;;3.10;;
17727;SDS011;8984;49.268;12.302;2023-06-05T11:21:00;5.30;;;3.75;;
17727;SDS011;8984;49.268;12.302;2023-06-05T11:23:28;5.57;;;3.20;;
17727;SDS011;8984;49.268;12.302;2023-06-05T11:25:56;6.20;;;3.40;;
17727;SDS011;8984;49.268;12.302;2023-06-05T11:28:44;6.03;;;2.92;;
17727;SDS011;8984;49.268;12.302;2023-06-05T11:31:13;4.75;;;2.92;;
17727;SDS011;8984;49.268;12.302;2023-06-05T11:33:56;4.18;;;3.10;;
17727;SDS011;8984;49.268;12.302;2023-06-05T11:36:23;4.70;;;2.95;;
17727;SDS011;8984;49.268;12.302;2023-06-05T11:38:53;5.20;;;2.67;;
17727;SDS011;8984;49.268;12.302;2023-06-05T11:41:21;5.07;;;3.08;;
17727;SDS011;8984;49.268;12.302;2023-06-05T11:43:49;3.97;;;2.60;;
17727;SDS011;8984;49.268;12.302;2023-06-05T11:46:18;7.60;;;3.15;;
17727;SDS011;8984;49.268;12.302;2023-06-05T11:48:45;3.67;;;2.88;;
17727;SDS011;8984;49.268;12.302;2023-06-05T11:51:11;4.15;;;2.78;;
17727;SDS011;8984;49.268;12.302;2023-06-05T11:53:43;6.38;;;3.20;;
17727;SDS011;8984;49.268;12.302;2023-06-05T11:56:12;5.20;;;2.75;;
17727;SDS011;8984;49.268;12.302;2023-06-05T11:58:41;3.25;;;2.88;;
17727;SDS011;8984;49.268;12.302;2023-06-05T12:01:09;3.38;;;3.00;;
17727;SDS011;8984;49.268;12.302;2023-06-05T12:03:41;7.50;;;2.92;;
17727;SDS011;8984;49.268;12.302;2023-06-05T12:06:08;4.40;;;2.70;;
17727;SDS011;8984;49.268;12.302;2023-06-05T12:08:37;4.50;;;2.75;;
17727;SDS011;8984;49.268;12.302;2023-06-05T12:11:04;3.70;;;2.67;;
17727;SDS011;8984;49.268;12.302;2023-06-05T12:13:46;11.95;;;3.10;;
17727;SDS011;8984;49.268;12.302;2023-06-05T12:16:14;7.00;;;3.10;;
17727;SDS011;8984;49.268;12.302;2023-06-05T12:18:43;6.40;;;3.22;;
17727;SDS011;8984;49.268;12.302;2023-06-05T12:21:20;4.55;;;2.85;;
17727;SDS011;8984;49.268;12.302;2023-06-05T12:23:48;5.35;;;2.90;;
17727;SDS011;8984;49.268;12.302;2023-06-05T12:26:15;5.78;;;3.47;;
17727;SDS011;8984;49.268;12.302;2023-06-05T12:28:43;8.85;;;3.38;;
17727;SDS011;8984;49.268;12.302;2023-06-05T12:34:01;4.15;;;2.92;;
17727;SDS011;8984;49.268;12.302;2023-06-05T12:36:29;4.18;;;2.90;;
17727;SDS011;8984;49.268;12.302;2023-06-05T12:39:01;6.78;;;3.20;;
17727;SDS011;8984;49.268;12.302;2023-06-05T12:41:31;6.22;;;3.00;;
17727;SDS011;8984;49.268;12.302;2023-06-05T12:44:00;3.58;;;2.95;;
17727;SDS011;8984;49.268;12.302;2023-06-05T12:46:29;7.60;;;2.92;;
17727;SDS011;8984;49.268;12.302;2023-06-05T12:48:56;6.85;;;3.10;;
17727;SDS011;8984;49.268;12.302;2023-06-05T12:51:25;3.67;;;3.28;;
17727;SDS011;8984;49.268;12.302;2023-06-05T12:53:52;6.60;;;2.90;;
17727;SDS011;8984;49.268;12.302;2023-06-05T12:56:20;5.93;;;3.28;;
17727;SDS011;8984;49.268;12.302;2023-06-05T12:58:50;2.92;;;2.60;;
17727;SDS011;8984;49.268;12.302;2023-06-05T13:01:18;7.75;;;3.10;;
17727;SDS011;8984;49.268;12.302;2023-06-05T13:03:45;3.67;;;2.90;;
17727;SDS011;8984;49.268;12.302;2023-06-05T13:06:13;4.47;;;2.75;;
17727;SDS011;8984;49.268;12.302;2023-06-05T13:08:41;5.60;;;2.90;;
17727;SDS011;8984;49.268;12.302;2023-06-05T13:11:08;6.28;;;2.80;;
17727;SDS011;8984;49.268;12.302;2023-06-05T13:13:37;3.22;;;2.60;;
17727;SDS011;8984;49.268;12.302;2023-06-05T13:16:04;3.30;;;2.63;;
17727;SDS011;8984;49.268;12.302;2023-06-05T13:18:33;3.78;;;2.50;;
17727;SDS011;8984;49.268;12.302;2023-06-05T13:21:00;4.93;;;2.63;;
17727;SDS011;8984;49.268;12.302;2023-06-05T13:23:29;4.80;;;2.80;;
17727;SDS011;8984;49.268;12.302;2023-06-05T13:25:57;2.45;;;2.22;;
17727;SDS011;8984;49.268;12.302;2023-06-05T13:28:24;8.13;;;2.60;;
17727;SDS011;8984;49.268;12.302;2023-06-05T13:30:51;3.72;;;2.33;;
17727;SDS011;8984;49.268;12.302;2023-06-05T13:33:18;3.20;;;2.38;;
17727;SDS011;8984;49.268;12.302;2023-06-05T13:35:45;4.53;;;2.15;;
17727;SDS011;8984;49.268;12.302;2023-06-05T13:38:12;1.90;;;1.70;;
17727;SDS011;8984;49.268;12.302;2023-06-05T13:40:39;4.32;;;1.60;;
17727;SDS011;8984;49.268;12.302;2023-06-05T13:43:08;2.30;;;2.10;;
17727;SDS011;8984;49.268;12.302;2023-06-05T13:45:36;4.30;;;2.17;;
17727;SDS011;8984;49.268;12.302;2023-06-05T13:48:03;3.50;;;2.15;;
17727;SDS011;8984;49.268;12.302;2023-06-05T13:50:30;6.03;;;2.60;;
17727;SDS011;8984;49.268;12.302;2023-06-05T13:52:56;2.80;;;2.33;;
17727;SDS011;8984;49.268;12.302;2023-06-05T13:55:23;9.13;;;3.28;;
17727;SDS011;8984;49.268;12.302;2023-06-05T13:57:50;5.45;;;3.15;;
17727;SDS011;8984;49.268;12.302;2023-06-05T14:00:18;3.50;;;3.20;;
17727;SDS011;8984;49.268;12.302;2023-06-05T14:02:45;7.90;;;3.70;;
17727;SDS011;8984;49.268;12.302;2023-06-05T14:05:12;5.90;;;3.28;;
17727;SDS011;8984;49.268;12.302;2023-06-05T14:07:39;5.85;;;3.05;;
17727;SDS011;8984;49.268;12.302;2023-06-05T14:10:06;4.07;;;3.15;;
17727;SDS011;8984;49.268;12.302;2023-06-05T14:12:33;7.63;;;3.13;;
17727;SDS011;8984;49.268;12.302;2023-06-05T14:15:00;7.07;;;3.20;;
17727;SDS011;8984;49.268;12.302;2023-06-05T14:17:28;4.10;;;3.40;;
17727;SDS011;8984;49.268;12.302;2023-06-05T14:19:55;4.03;;;3.25;;
17727;SDS011;8984;49.268;12.302;2023-06-05T14:22:22;4.43;;;3.40;;
17727;SDS011;8984;49.268;12.302;2023-06-05T14:24:49;5.03;;;3.17;;
17727;SDS011;8984;49.268;12.302;2023-06-05T14:27:15;5.93;;;3.10;;
17727;SDS011;8984;49.268;12.302;2023-06-05T14:29:43;7.75;;;2.90;;
17727;SDS011;8984;49.268;12.302;2023-06-05T14:32:10;4.53;;;2.50;;
17727;SDS011;8984;49.268;12.302;2023-06-05T14:34:38;3.83;;;2.00;;
17727;SDS011;8984;49.268;12.302;2023-06-05T14:37:05;3.55;;;2.15;;
17727;SDS011;8984;49.268;12.302;2023-06-05T14:39:32;3.60;;;2.40;;
17727;SDS011;8984;49.268;12.302;2023-06-05T14:41:58;4.95;;;2.30;;
17727;SDS011;8984;49.268;12.302;2023-06-05T14:44:25;2.80;;;2.20;;
17727;SDS011;8984;49.268;12.302;2023-06-05T14:46:53;2.65;;;2.22;;
17727;SDS011;8984;49.268;12.302;2023-06-05T14:49:21;2.47;;;2.03;;
17727;SDS011;8984;49.268;12.302;2023-06-05T14:51:49;2.22;;;2.03;;
17727;SDS011;8984;49.268;12.302;2023-06-05T14:54:16;3.08;;;2.10;;
17727;SDS011;8984;49.268;12.302;2023-06-05T14:56:43;2.30;;;2.10;;
17727;SDS011;8984;49.268;12.302;2023-06-05T14:59:12;2.80;;;2.08;;
17727;SDS011;8984;49.268;12.302;2023-06-05T15:01:39;3.60;;;2.03;;
17727;SDS011;8984;49.268;12.302;2023-06-05T15:04:06;3.25;;;2.30;;
17727;SDS011;8984;49.268;12.302;2023-06-05T15:06:32;2.20;;;2.00;;
17727;SDS011;8984;49.268;12.302;2023-06-05T15:09:01;2.20;;;2.00;;
17727;SDS011;8984;49.268;12.302;2023-06-05T15:11:28;1.80;;;1.70;;
17727;SDS011;8984;49.268;12.302;2023-06-05T15:13:55;1.90;;;1.70;;
17727;SDS011;8984;49.268;12.302;2023-06-05T15:16:22;2.35;;;1.90;;
17727;SDS011;8984;49.268;12.302;2023-06-05T15:18:49;2.17;;;1.80;;
17727;SDS011;8984;49.268;12.302;2023-06-05T15:21:16;2.30;;;1.98;;
17727;SDS011;8984;49.268;12.302;2023-06-05T15:23:43;2.00;;;1.80;;